Time;durP1;ratioP1;P1;durP2;ratioP2;P2;SDS_P1;SDS_P2;PMS_P1;PMS_P2;Temp;Humidity;BMP_temperature;BMP_pressure;BME280_temperature;BME280_humidity;BME280_pressure;Samples;Min_cycle;Max_cycle;Signal;HPM_P1;HPM_P2
2021/04/27 00:00:58;;;;;;;;;;;;;;;-0.38;64.39;95910.47;3619945;39;20359;-55
2021/04/27 00:03:25;;;;;;;;;;;;;;;-0.40;65.06;95909.06;3618787;39;19969;-55
2021/04/27 00:05:52;;;;;;;;;;;;;;;-0.41;65.54;95918.63;3620063;39;19958;-54
2021/04/27 00:08:19;;;;;;;;;;;;;;;-0.42;65.20;95904.03;3618177;39;19943;-55
2021/04/27 00:10:46;;;;;;;;;;;;;;;-0.44;65.23;95906.06;3619434;39;19947;-55
2021/04/27 00:13:13;;;;;;;;;;;;;;;-0.48;65.73;95900.41;3619538;39;19941;-55
2021/04/27 00:15:40;;;;;;;;;;;;;;;-0.50;65.90;95891.22;3623294;39;20250;-55
2021/04/27 00:18:07;;;;;;;;;;;;;;;-0.51;65.43;95892.22;3619375;39;19939;-55
2021/04/27 00:20:35;;;;;;;;;;;;;;;-0.55;65.77;95891.78;3614921;39;19947;-55
2021/04/27 00:23:03;;;;;;;;;;;;;;;-0.58;66.19;95889.56;3614243;39;19953;-54
2021/04/27 00:25:30;;;;;;;;;;;;;;;-0.62;66.16;95886.53;3619671;39;19953;-55
2021/04/27 00:27:58;;;;;;;;;;;;;;;-0.65;66.28;95881.72;3609248;39;19953;-54
2021/04/27 00:30:26;;;;;;;;;;;;;;;-0.71;66.49;95876.50;3619532;39;19949;-54
2021/04/27 00:32:54;;;;;;;;;;;;;;;-0.73;66.89;95868.91;3620001;39;19947;-54
2021/04/27 00:35:21;;;;;;;;;;;;;;;-0.79;66.99;95880.00;3620171;39;19943;-54
2021/04/27 00:37:48;;;;;;;;;;;;;;;-0.82;66.65;95867.44;3611438;39;19968;-54
2021/04/27 00:40:17;;;;;;;;;;;;;;;-0.86;66.94;95873.97;3628586;39;20211;-54
2021/04/27 00:42:46;;;;;;;;;;;;;;;-0.87;67.48;95867.19;3618345;39;19964;-55
2021/04/27 00:45:17;;;;;;;;;;;;;;;-0.85;67.67;95865.22;3621624;39;19935;-55
2021/04/27 00:47:44;;;;;;;;;;;;;;;-0.87;67.85;95862.81;3611112;39;19943;-54
2021/04/27 00:50:13;;;;;;;;;;;;;;;-0.85;67.47;95860.03;3626198;39;20028;-54
2021/04/27 00:52:43;;;;;;;;;;;;;;;-0.83;68.15;95863.25;3625906;39;19947;-55
2021/04/27 00:55:11;;;;;;;;;;;;;;;-0.86;67.87;95861.00;3626839;39;20544;-55
2021/04/27 00:57:41;;;;;;;;;;;;;;;-0.88;67.70;95865.56;3624175;39;19952;-54
2021/04/27 01:00:13;;;;;;;;;;;;;;;-0.89;67.51;95861.38;3623930;39;19943;-54
2021/04/27 01:02:40;;;;;;;;;;;;;;;-0.90;67.59;95868.34;3618855;39;19943;-54
2021/04/27 01:05:09;;;;;;;;;;;;;;;-0.93;67.65;95869.53;3623270;39;19947;-55
2021/04/27 01:07:38;;;;;;;;;;;;;;;-0.95;68.15;95875.88;3626239;39;19973;-55
2021/04/27 01:10:07;;;;;;;;;;;;;;;-1.01;67.88;95872.22;3624152;39;19952;-55
2021/04/27 01:12:47;;;;;;;;;;;;;;;-1.08;67.42;95876.53;3624582;39;20716;-55
2021/04/27 01:15:21;;;;;;;;;;;;;;;-1.14;68.34;95877.25;3627625;39;19949;-54
2021/04/27 01:17:49;;;;;;;;;;;;;;;-1.17;68.67;95882.81;3620745;39;19947;-54
2021/04/27 01:20:19;;;;;;;;;;;;;;;-1.24;68.12;95875.75;3602954;39;19939;-54
2021/04/27 01:23:03;;;;;;;;;;;;;;;-1.40;68.90;95874.19;3617553;39;19947;-55
2021/04/27 01:25:41;;;;;;;;;;;;;;;-1.45;69.11;95875.72;3613096;39;19943;-55
2021/04/27 01:28:08;;;;;;;;;;;;;;;-1.47;69.55;95875.88;3628842;39;19943;-53
2021/04/27 01:30:38;;;;;;;;;;;;;;;-1.47;69.29;95872.50;3626280;39;19938;-54
2021/04/27 01:33:11;;;;;;;;;;;;;;;-1.47;69.33;95877.69;3611565;39;19949;-54
2021/04/27 01:35:39;;;;;;;;;;;;;;;-1.50;69.49;95875.44;3620553;39;19950;-56
2021/04/27 01:38:10;;;;;;;;;;;;;;;-1.57;70.43;95885.72;3612163;39;20203;-56
2021/04/27 01:40:37;;;;;;;;;;;;;;;-1.65;70.61;95878.06;3622045;39;19943;-54
2021/04/27 01:43:05;;;;;;;;;;;;;;;-1.67;71.22;95875.66;3621466;39;20416;-57
2021/04/27 01:45:33;;;;;;;;;;;;;;;-1.65;71.33;95878.06;3613359;39;20231;-56
2021/04/27 01:48:02;;;;;;;;;;;;;;;-1.65;71.24;95871.09;3619231;39;20367;-54
2021/04/27 01:50:31;;;;;;;;;;;;;;;-1.66;70.41;95874.66;3617790;39;19935;-55
2021/04/27 01:53:14;;;;;;;;;;;;;;;-1.64;70.79;95877.88;3621145;39;19943;-55
2021/04/27 01:55:42;;;;;;;;;;;;;;;-1.63;70.28;95876.88;3615806;39;19949;-55
2021/04/27 01:58:10;;;;;;;;;;;;;;;-1.69;70.97;95872.44;3620543;39;20120;-53
2021/04/27 02:00:37;;;;;;;;;;;;;;;-1.72;70.73;95872.78;3622602;39;20285;-54
2021/04/27 02:03:05;;;;;;;;;;;;;;;-1.78;71.64;95876.09;3611066;39;20344;-54
2021/04/27 02:05:59;;;;;;;;;;;;;;;-1.80;71.17;95875.47;3601519;39;19968;-53
2021/04/27 02:08:28;;;;;;;;;;;;;;;-1.80;70.79;95873.69;3619691;39;20326;-54
2021/04/27 02:11:01;;;;;;;;;;;;;;;-1.82;72.06;95874.84;3627780;39;20143;-53
2021/04/27 02:13:28;;;;;;;;;;;;;;;-1.79;71.41;95871.91;3611484;39;19943;-56
2021/04/27 02:16:06;;;;;;;;;;;;;;;-1.80;70.94;95868.50;3623425;39;19965;-55
2021/04/27 02:18:57;;;;;;;;;;;;;;;-1.77;71.27;95872.50;3622147;39;19942;-54
2021/04/27 02:21:26;;;;;;;;;;;;;;;-1.84;71.13;95871.63;3626122;39;19939;-54
2021/04/27 02:24:34;;;;;;;;;;;;;;;-1.86;71.87;95867.44;3599014;39;19943;-52
2021/04/27 02:27:02;;;;;;;;;;;;;;;-1.89;71.45;95864.41;3591413;39;19947;-53
2021/04/27 02:29:34;;;;;;;;;;;;;;;-1.87;72.21;95857.28;3597712;39;19935;-52
2021/04/27 02:32:01;;;;;;;;;;;;;;;-1.86;72.25;95857.09;3621095;39;19988;-54
2021/04/27 02:34:32;;;;;;;;;;;;;;;-1.84;71.57;95858.72;3598587;39;20351;-54
2021/04/27 02:37:00;;;;;;;;;;;;;;;-1.86;72.21;95869.25;3618022;39;21449;-53
2021/04/27 02:39:34;;;;;;;;;;;;;;;-1.86;72.48;95870.03;3620133;39;19974;-54
2021/04/27 02:42:02;;;;;;;;;;;;;;;-1.88;71.44;95866.03;3620695;39;19954;-56
2021/04/27 02:44:50;;;;;;;;;;;;;;;-1.84;72.21;95877.59;3617517;39;19936;-56
2021/04/27 02:47:25;;;;;;;;;;;;;;;-1.83;71.92;95873.25;3611476;39;20398;-56
2021/04/27 02:49:52;;;;;;;;;;;;;;;-1.83;71.83;95873.25;3611233;39;20276;-56
2021/04/27 02:52:22;;;;;;;;;;;;;;;-1.83;72.13;95868.06;3621342;39;19989;-55
2021/04/27 02:54:57;;;;;;;;;;;;;;;-1.83;71.56;95871.44;3624956;39;19950;-56
2021/04/27 02:57:26;;;;;;;;;;;;;;;-1.88;71.35;95873.78;3626804;39;20203;-54
2021/04/27 02:59:53;;;;;;;;;;;;;;;-1.95;72.12;95873.69;3621002;39;19942;-53
2021/04/27 03:02:20;;;;;;;;;;;;;;;-2.02;72.03;95865.84;3612211;39;20215;-53
2021/04/27 03:04:47;;;;;;;;;;;;;;;-2.04;72.67;95872.19;3612365;39;19947;-53
2021/04/27 03:07:18;;;;;;;;;;;;;;;-2.03;73.02;95872.00;3609901;39;20292;-54
2021/04/27 03:09:48;;;;;;;;;;;;;;;-2.01;72.78;95871.81;3617079;39;19943;-54
2021/04/27 03:12:15;;;;;;;;;;;;;;;-2.02;73.19;95865.84;3618699;39;19946;-53
2021/04/27 03:14:42;;;;;;;;;;;;;;;-2.08;72.62;95876.09;3613187;39;19949;-53
2021/04/27 03:17:11;;;;;;;;;;;;;;;-2.14;72.54;95877.59;3609278;39;19949;-53
2021/04/27 03:19:48;;;;;;;;;;;;;;;-2.25;73.06;95868.47;3613751;39;19953;-53
2021/04/27 03:22:21;;;;;;;;;;;;;;;-2.36;74.46;95864.56;3621369;39;19953;-53
2021/04/27 03:24:49;;;;;;;;;;;;;;;-2.49;74.89;95867.72;3623511;39;20315;-53
2021/04/27 03:27:18;;;;;;;;;;;;;;;-2.43;75.06;95875.75;3607102;39;19943;-54
2021/04/27 03:29:53;;;;;;;;;;;;;;;-2.40;74.11;95867.66;3625892;39;19945;-53
2021/04/27 03:32:20;;;;;;;;;;;;;;;-2.38;74.14;95876.84;3618518;39;19947;-55
2021/04/27 03:34:48;;;;;;;;;;;;;;;-2.30;74.43;95872.56;3616995;39;19947;-54
2021/04/27 03:37:16;;;;;;;;;;;;;;;-2.27;73.37;95870.44;3630608;39;20306;-54
2021/04/27 03:39:44;;;;;;;;;;;;;;;-2.28;73.97;95874.03;3611058;39;19935;-55
2021/04/27 03:42:11;;;;;;;;;;;;;;;-2.25;73.57;95876.22;3614241;39;19939;-54
2021/04/27 03:44:39;;;;;;;;;;;;;;;-2.21;74.21;95877.50;3617074;39;19950;-56
2021/04/27 03:47:07;;;;;;;;;;;;;;;-2.17;74.35;95875.34;3621458;39;19943;-56
2021/04/27 03:49:35;;;;;;;;;;;;;;;-2.13;73.70;95883.56;3623965;39;20452;-56
2021/04/27 03:52:03;;;;;;;;;;;;;;;-2.10;74.26;95883.19;3618451;39;19951;-55
2021/04/27 03:54:31;;;;;;;;;;;;;;;-2.05;73.64;95891.25;3618280;39;19949;-55
2021/04/27 03:56:58;;;;;;;;;;;;;;;-2.03;73.63;95895.25;3616046;39;19943;-55
2021/04/27 03:59:26;;;;;;;;;;;;;;;-2.07;73.85;95877.69;3602976;39;19947;-54
2021/04/27 04:01:54;;;;;;;;;;;;;;;-1.87;73.56;95890.91;3617209;39;19943;-54
2021/04/27 04:04:23;;;;;;;;;;;;;;;-1.80;72.95;95894.38;3614556;39;20505;-54
2021/04/27 04:07:10;;;;;;;;;;;;;;;-1.74;72.80;95892.84;3617058;39;19947;-55
2021/04/27 04:10:06;;;;;;;;;;;;;;;-1.64;72.84;95900.34;3592866;39;19965;-54
2021/04/27 04:12:35;;;;;;;;;;;;;;;-1.44;72.42;95892.84;3607103;39;19935;-53
2021/04/27 04:15:04;;;;;;;;;;;;;;;-0.83;71.25;95907.28;3610541;39;20322;-55
2021/04/27 04:17:33;;;;;;;;;;;;;;;0.09;68.55;95902.25;3625790;39;19943;-54
2021/04/27 04:20:00;;;;;;;;;;;;;;;0.84;66.10;95912.03;3598617;39;19953;-54
2021/04/27 04:22:36;;;;;;;;;;;;;;;1.51;62.73;95905.22;3603982;39;19946;-54
2021/04/27 04:25:08;;;;;;;;;;;;;;;2.06;60.51;95900.81;3602172;39;19950;-54
2021/04/27 04:27:35;;;;;;;;;;;;;;;2.46;59.59;95914.56;3606118;39;19943;-56
2021/04/27 04:30:09;;;;;;;;;;;;;;;2.85;57.19;95911.22;3610115;39;19947;-54
2021/04/27 04:32:36;;;;;;;;;;;;;;;3.10;56.42;95915.75;3618823;39;19949;-54
2021/04/27 04:35:24;;;;;;;;;;;;;;;3.48;56.91;95922.75;3609674;39;19949;-54
2021/04/27 04:38:10;;;;;;;;;;;;;;;3.96;53.49;95919.59;3619349;39;19947;-55
2021/04/27 04:40:57;;;;;;;;;;;;;;;4.11;53.43;95914.06;3620599;39;19950;-54
2021/04/27 04:43:43;;;;;;;;;;;;;;;4.37;52.38;95914.03;3616103;39;19943;-54
2021/04/27 04:46:28;;;;;;;;;;;;;;;4.85;51.39;95910.72;3616095;39;19947;-54
2021/04/27 04:48:55;;;;;;;;;;;;;;;5.21;50.99;95918.69;3619168;39;19950;-54
2021/04/27 04:51:37;;;;;;;;;;;;;;;5.67;48.39;95916.47;3612818;39;19948;-55
2021/04/27 04:54:08;;;;;;;;;;;;;;;5.77;47.98;95913.31;3603154;39;20388;-55
2021/04/27 04:56:35;;;;;;;;;;;;;;;5.89;48.67;95918.56;3608617;39;19935;-55
2021/04/27 04:59:02;;;;;;;;;;;;;;;6.04;48.89;95924.19;3618357;39;19942;-54
2021/04/27 05:01:29;;;;;;;;;;;;;;;6.61;47.21;95914.94;3605431;39;19935;-55
2021/04/27 05:04:14;;;;;;;;;;;;;;;6.70;47.27;95910.16;3616476;39;19945;-55
2021/04/27 05:07:05;;;;;;;;;;;;;;;6.52;46.91;95916.34;3620488;39;19953;-54
2021/04/27 05:09:51;;;;;;;;;;;;;;;6.08;47.04;95921.91;3623140;39;19980;-54
2021/04/27 05:12:41;;;;;;;;;;;;;;;5.81;48.16;95923.09;3614512;39;20259;-54
2021/04/27 05:15:13;;;;;;;;;;;;;;;5.76;48.01;95920.34;3616725;39;20064;-54
2021/04/27 05:17:40;;;;;;;;;;;;;;;5.34;48.99;95923.75;3616744;39;20288;-54
2021/04/27 05:20:07;;;;;;;;;;;;;;;5.02;48.06;95928.38;3610417;39;19951;-55
2021/04/27 05:22:43;;;;;;;;;;;;;;;4.82;48.45;95926.00;3609591;39;20293;-56
2021/04/27 05:25:10;;;;;;;;;;;;;;;4.72;49.35;95929.16;3620132;39;20885;-56
2021/04/27 05:27:41;;;;;;;;;;;;;;;4.41;49.61;95926.44;3621626;39;19953;-54
2021/04/27 05:30:08;;;;;;;;;;;;;;;4.11;51.55;95927.09;3615027;39;19949;-54
2021/04/27 05:32:35;;;;;;;;;;;;;;;3.95;51.98;95936.28;3621471;39;19947;-54
2021/04/27 05:35:03;;;;;;;;;;;;;;;3.74;53.67;95928.81;3619023;39;19943;-55
2021/04/27 05:37:30;;;;;;;;;;;;;;;3.65;54.62;95939.47;3619680;39;19945;-54
2021/04/27 05:39:57;;;;;;;;;;;;;;;3.58;54.38;95941.34;3612288;39;19935;-56
2021/04/27 05:42:24;;;;;;;;;;;;;;;3.54;54.64;95942.75;3626786;39;19945;-54
2021/04/27 05:44:51;;;;;;;;;;;;;;;3.56;55.01;95937.34;3619257;39;19947;-54
2021/04/27 05:47:18;;;;;;;;;;;;;;;3.47;56.40;95940.19;3622115;39;19950;-54
2021/04/27 05:49:45;;;;;;;;;;;;;;;3.43;58.40;95946.03;3610258;39;19950;-54
2021/04/27 05:52:12;;;;;;;;;;;;;;;3.44;58.87;95943.25;3617951;39;19972;-54
2021/04/27 05:54:39;;;;;;;;;;;;;;;3.45;58.73;95939.59;3616110;39;19949;-54
2021/04/27 05:57:06;;;;;;;;;;;;;;;3.51;58.90;95938.78;3620116;39;19939;-54
2021/04/27 05:59:33;;;;;;;;;;;;;;;3.57;58.78;95944.97;3617827;39;19958;-56
2021/04/27 06:02:00;;;;;;;;;;;;;;;3.63;58.49;95943.31;3620603;39;20297;-55
2021/04/27 06:04:28;;;;;;;;;;;;;;;3.65;58.14;95936.88;3618565;39;19979;-55
2021/04/27 06:06:55;;;;;;;;;;;;;;;3.61;58.08;95924.47;3615981;39;19968;-54
2021/04/27 06:09:22;;;;;;;;;;;;;;;3.70;58.05;95941.44;3615337;39;19968;-54
2021/04/27 06:11:49;;;;;;;;;;;;;;;3.72;58.05;95939.44;3618809;39;19943;-54
2021/04/27 06:14:16;;;;;;;;;;;;;;;3.75;58.41;95939.03;3621422;39;19943;-54
2021/04/27 06:16:43;;;;;;;;;;;;;;;3.77;57.90;95930.97;3619495;39;19947;-54
2021/04/27 06:19:10;;;;;;;;;;;;;;;3.88;58.95;95935.50;3618991;39;20046;-54
2021/04/27 06:21:37;;;;;;;;;;;;;;;3.90;58.34;95930.88;3621363;39;19974;-55
2021/04/27 06:24:04;;;;;;;;;;;;;;;4.02;58.53;95938.00;3627179;39;19947;-54
2021/04/27 06:26:31;;;;;;;;;;;;;;;4.14;58.03;95933.69;3624952;39;19947;-54
2021/04/27 06:28:58;;;;;;;;;;;;;;;4.27;57.40;95930.97;3624183;39;19953;-54
2021/04/27 06:31:25;;;;;;;;;;;;;;;4.34;57.75;95937.97;3620639;39;19947;-55
2021/04/27 06:33:52;;;;;;;;;;;;;;;4.46;54.67;95933.63;3622446;39;20215;-54
2021/04/27 06:36:20;;;;;;;;;;;;;;;4.54;54.13;95932.56;3624682;39;19939;-55
2021/04/27 06:38:48;;;;;;;;;;;;;;;4.65;54.23;95931.84;3622814;39;19939;-53
2021/04/27 06:41:17;;;;;;;;;;;;;;;4.69;53.37;95929.56;3628843;39;19935;-58
2021/04/27 06:43:44;;;;;;;;;;;;;;;4.80;53.70;95923.63;3625260;39;19953;-54
2021/04/27 06:46:11;;;;;;;;;;;;;;;4.89;53.31;95924.91;3624556;39;19951;-54
2021/04/27 06:48:38;;;;;;;;;;;;;;;4.87;52.79;95919.09;3619486;39;20517;-54
2021/04/27 06:51:06;;;;;;;;;;;;;;;4.96;52.26;95926.66;3621675;39;19949;-55
2021/04/27 06:53:34;;;;;;;;;;;;;;;5.11;52.82;95927.06;3622860;39;19941;-55
2021/04/27 06:56:01;;;;;;;;;;;;;;;5.24;52.89;95923.50;3624121;39;19935;-54
2021/04/27 06:58:29;;;;;;;;;;;;;;;5.29;51.99;95925.44;3623562;39;19947;-55
2021/04/27 07:00:56;;;;;;;;;;;;;;;5.31;52.81;95918.19;3621523;39;19950;-55
2021/04/27 07:03:23;;;;;;;;;;;;;;;5.35;52.24;95929.81;3623624;39;19950;-56
2021/04/27 07:05:50;;;;;;;;;;;;;;;5.44;51.96;95931.09;3618261;39;19951;-54
2021/04/27 07:08:17;;;;;;;;;;;;;;;5.59;52.11;95930.66;3621280;39;19949;-54
2021/04/27 07:10:44;;;;;;;;;;;;;;;5.74;51.92;95926.84;3620020;39;19943;-55
2021/04/27 07:13:11;;;;;;;;;;;;;;;5.79;51.40;95926.94;3613580;39;19961;-54
2021/04/27 07:15:39;;;;;;;;;;;;;;;5.93;51.56;95922.31;3625400;39;19950;-54
2021/04/27 07:18:09;;;;;;;;;;;;;;;6.10;51.54;95928.50;3613952;39;19943;-55
2021/04/27 07:20:36;;;;;;;;;;;;;;;6.19;50.91;95918.50;3615013;39;19964;-55
2021/04/27 07:23:04;;;;;;;;;;;;;;;6.15;50.26;95922.63;3612187;39;19949;-54
2021/04/27 07:25:31;;;;;;;;;;;;;;;6.26;49.70;95913.97;3620192;39;19943;-54
2021/04/27 07:27:58;;;;;;;;;;;;;;;6.31;50.24;95905.41;3612276;39;19943;-54
2021/04/27 07:30:25;;;;;;;;;;;;;;;6.34;49.09;95910.19;3619749;39;20599;-54
2021/04/27 07:32:52;;;;;;;;;;;;;;;6.53;48.99;95917.94;3621444;39;19947;-55
2021/04/27 07:35:20;;;;;;;;;;;;;;;6.59;48.03;95909.13;3631653;39;19941;-54
2021/04/27 07:37:47;;;;;;;;;;;;;;;6.63;47.30;95906.88;3625285;39;19935;-54
2021/04/27 07:40:14;;;;;;;;;;;;;;;6.63;46.88;95909.50;3617916;39;19943;-54
2021/04/27 07:42:42;;;;;;;;;;;;;;;6.57;47.38;95906.75;3612845;39;20272;-59
2021/04/27 07:45:11;;;;;;;;;;;;;;;6.59;46.85;95906.50;3621122;39;19943;-56
2021/04/27 07:47:38;;;;;;;;;;;;;;;6.65;46.86;95910.84;3611219;39;19939;-55
2021/04/27 07:50:06;;;;;;;;;;;;;;;6.82;47.71;95904.91;3611801;39;19947;-56
2021/04/27 07:52:34;;;;;;;;;;;;;;;6.87;48.02;95902.38;3603910;39;20397;-54
2021/04/27 07:55:02;;;;;;;;;;;;;;;6.88;46.19;95903.97;3617354;39;19963;-54
2021/04/27 07:57:29;;;;;;;;;;;;;;;6.96;46.80;95900.19;3623154;39;20298;-54
2021/04/27 07:59:56;;;;;;;;;;;;;;;7.13;47.18;95897.63;3616254;39;19947;-55
2021/04/27 08:02:23;;;;;;;;;;;;;;;7.22;47.04;95899.63;3621036;39;19943;-54
2021/04/27 08:04:50;;;;;;;;;;;;;;;7.41;46.94;95896.03;3610645;39;19943;-55
2021/04/27 08:07:18;;;;;;;;;;;;;;;7.58;46.72;95896.84;3620224;39;19949;-55
2021/04/27 08:09:45;;;;;;;;;;;;;;;7.60;44.87;95900.03;3618268;39;20922;-56
2021/04/27 08:12:12;;;;;;;;;;;;;;;7.56;44.04;95890.25;3612061;39;20339;-54
2021/04/27 08:14:39;;;;;;;;;;;;;;;7.69;42.91;95893.34;3620426;39;19949;-55
2021/04/27 08:17:07;;;;;;;;;;;;;;;7.75;43.86;95896.06;3615641;39;19935;-57
2021/04/27 08:19:35;;;;;;;;;;;;;;;7.81;43.60;95895.13;3619847;39;19980;-56
2021/04/27 08:22:05;;;;;;;;;;;;;;;7.90;41.79;95898.13;3619667;39;20402;-59
2021/04/27 08:24:33;;;;;;;;;;;;;;;7.93;40.61;95898.47;3621167;39;19949;-55
2021/04/27 08:27:07;;;;;;;;;;;;;;;8.15;41.02;95898.53;3619575;39;19942;-55
2021/04/27 08:29:34;;;;;;;;;;;;;;;8.23;38.30;95891.28;3618042;39;19972;-54
2021/04/27 08:32:02;;;;;;;;;;;;;;;8.39;39.38;95894.94;3616618;39;19949;-54
2021/04/27 08:34:30;;;;;;;;;;;;;;;8.50;35.90;95891.44;3619472;39;19953;-54
2021/04/27 08:36:57;;;;;;;;;;;;;;;8.58;34.29;95893.63;3611911;39;19943;-54
2021/04/27 08:39:24;;;;;;;;;;;;;;;8.82;35.45;95890.78;3621989;39;19943;-54
2021/04/27 08:41:51;;;;;;;;;;;;;;;9.00;34.77;95888.88;3619986;39;20211;-54
2021/04/27 08:44:19;;;;;;;;;;;;;;;9.04;35.00;95885.50;3618979;39;19975;-56
2021/04/27 08:46:46;;;;;;;;;;;;;;;9.16;36.11;95884.56;3618124;39;20290;-54
2021/04/27 08:49:13;;;;;;;;;;;;;;;9.10;35.60;95882.94;3619734;39;19947;-54
2021/04/27 08:51:40;;;;;;;;;;;;;;;9.20;37.06;95883.06;3620828;39;19947;-55
2021/04/27 08:54:27;;;;;;;;;;;;;;;9.30;35.60;95877.88;3620464;39;20305;-54
2021/04/27 08:56:55;;;;;;;;;;;;;;;9.31;35.35;95873.41;3624203;39;19943;-55
2021/04/27 08:59:22;;;;;;;;;;;;;;;9.47;35.47;95875.16;3631414;39;19943;-54
2021/04/27 09:01:49;;;;;;;;;;;;;;;9.65;35.01;95868.72;3620301;39;19949;-54
2021/04/27 09:04:36;;;;;;;;;;;;;;;-146.28;100.00;62448.88;3619497;39;19953;-54
2021/04/27 09:07:04;;;;;;;;;;;;;;;-146.28;100.00;62448.88;3623324;39;20438;-55
2021/04/27 09:09:36;;;;;;;;;;;;;;;-146.28;100.00;62448.88;3627051;39;19949;-54
2021/04/27 09:12:03;;;;;;;;;;;;;;;-146.28;100.00;62448.88;3629416;39;19934;-55
2021/04/27 09:14:35;;;;;;;;;;;;;;;-146.28;100.00;62448.88;3620650;39;20334;-57
2021/04/27 09:17:04;;;;;;;;;;;;;;;-146.28;100.00;62448.88;3622354;39;19942;-54
2021/04/27 09:19:40;;;;;;;;;;;;;;;-146.28;100.00;62448.88;3623751;39;19949;-54
2021/04/27 09:22:12;;;;;;;;;;;;;;;-146.28;100.00;62448.88;3620776;39;20405;-54
2021/04/27 09:24:41;;;;;;;;;;;;;;;-146.28;100.00;62448.88;3622332;39;19939;-56
2021/04/27 09:27:11;;;;;;;;;;;;;;;-146.28;100.00;62448.88;3616686;39;19935;-57
2021/04/27 09:29:39;;;;;;;;;;;;;;;-146.28;100.00;62448.88;3606776;39;20284;-54
2021/04/27 09:32:07;;;;;;;;;;;;;;;-146.28;100.00;62448.88;3621792;39;19935;-54
2021/04/27 09:34:39;;;;;;;;;;;;;;;-146.28;100.00;62448.88;3622326;39;19949;-55
2021/04/27 09:37:08;;;;;;;;;;;;;;;-146.28;100.00;62448.88;3621844;39;19958;-54
2021/04/27 09:39:50;;;;;;;;;;;;;;;-146.28;100.00;62448.88;3617230;39;19943;-56
2021/04/27 09:42:21;;;;;;;;;;;;;;;-146.28;100.00;62448.88;3622908;39;19947;-55
2021/04/27 09:44:52;;;;;;;;;;;;;;;-146.28;100.00;62448.88;3613777;39;19949;-54
2021/04/27 09:47:27;;;;;;;;;;;;;;;-146.28;100.00;62448.88;3622357;39;20299;-56
2021/04/27 09:49:55;;;;;;;;;;;;;;;-146.28;100.00;62448.88;3622706;39;19947;-54
2021/04/27 09:52:24;;;;;;;;;;;;;;;-146.28;100.00;62448.88;3624389;39;19947;-54
2021/04/27 09:55:11;;;;;;;;;;;;;;;-146.28;100.00;62448.88;3621972;39;19972;-54
2021/04/27 09:57:48;;;;;;;;;;;;;;;-146.28;100.00;62448.88;3625449;39;20732;-54
2021/04/27 10:00:29;;;;;;;;;;;;;;;-146.28;100.00;62448.88;3625910;39;19950;-55
2021/04/27 10:02:57;;;;;;;;;;;;;;;-146.28;100.00;62448.88;3623318;39;19938;-56
2021/04/27 10:05:24;;;;;;;;;;;;;;;-146.28;100.00;62448.88;3620306;39;20238;-56
2021/04/27 10:07:52;;;;;;;;;;;;;;;-146.28;100.00;62448.88;3623542;39;19943;-55
2021/04/27 10:10:19;;;;;;;;;;;;;;;-146.28;100.00;62448.88;3622079;39;19953;-56
2021/04/27 10:13:08;;;;;;;;;;;;;;;-146.28;100.00;62448.88;3624388;39;19951;-56
2021/04/27 10:15:39;;;;;;;;;;;;;;;-146.28;100.00;62448.88;3624270;39;19939;-56
2021/04/27 10:18:08;;;;;;;;;;;;;;;-146.28;100.00;62448.88;3623764;39;19946;-55
2021/04/27 10:20:36;;;;;;;;;;;;;;;-146.28;100.00;62448.88;3623667;39;19939;-56
2021/04/27 10:23:05;;;;;;;;;;;;;;;-146.28;100.00;62448.88;3627884;39;20152;-55
2021/04/27 10:25:32;;;;;;;;;;;;;;;-146.28;100.00;62448.88;3622521;39;19943;-55
2021/04/27 10:28:07;;;;;;;;;;;;;;;-146.28;100.00;62448.88;3606393;39;19939;-55
2021/04/27 10:30:38;;;;;;;;;;;;;;;-146.28;100.00;62448.88;3621035;39;19947;-56
2021/04/27 10:33:05;;;;;;;;;;;;;;;-146.28;100.00;62448.88;3614959;39;19942;-55
2021/04/27 10:35:34;;;;;;;;;;;;;;;-146.28;100.00;62448.88;3624340;39;19939;-55
2021/04/27 10:38:19;;;;;;;;;;;;;;;-146.28;100.00;62448.88;3623154;39;21041;-55
2021/04/27 10:40:50;;;;;;;;;;;;;;;-146.28;100.00;62448.88;3623116;39;19942;-55
2021/04/27 10:43:26;;;;;;;;;;;;;;;-146.28;100.00;62448.88;3632220;39;19949;-55
2021/04/27 10:45:56;;;;;;;;;;;;;;;-146.28;100.00;62448.88;3622948;39;19953;-55
2021/04/27 10:48:31;;;;;;;;;;;;;;;-146.28;100.00;62448.88;3621433;39;20280;-55
2021/04/27 10:51:19;;;;;;;;;;;;;;;-146.28;100.00;62448.88;3623355;39;20215;-56
2021/04/27 10:54:04;;;;;;;;;;;;;;;-146.28;100.00;62448.88;3624858;39;20462;-55
2021/04/27 10:56:34;;;;;;;;;;;;;;;-146.28;100.00;62448.88;3623199;39;19935;-55
2021/04/27 10:59:28;;;;;;;;;;;;;;;-146.28;100.00;62448.88;3625516;39;19945;-55
2021/04/27 11:02:07;;;;;;;;;;;;;;;-146.28;100.00;62448.88;3622326;39;19932;-55
2021/04/27 11:04:45;;;;;;;;;;;;;;;-146.28;100.00;62448.88;3620156;39;20322;-54
2021/04/27 11:07:21;;;;;;;;;;;;;;;-146.28;100.00;62448.88;3623444;39;19943;-57
2021/04/27 11:09:58;;;;;;;;;;;;;;;-146.28;100.00;62448.88;3611905;39;19939;-56
2021/04/27 11:12:46;;;;;;;;;;;;;;;-146.28;100.00;62448.88;3625102;39;19972;-55
2021/04/27 11:15:21;;;;;;;;;;;;;;;-146.28;100.00;62448.88;3622437;39;19949;-55
2021/04/27 11:18:06;;;;;;;;;;;;;;;-146.28;100.00;62448.88;3624350;39;20215;-54
2021/04/27 11:20:44;;;;;;;;;;;;;;;-146.28;100.00;62448.88;3621236;39;19942;-56
2021/04/27 11:23:30;;;;;;;;;;;;;;;-146.28;100.00;62448.88;3631110;39;19935;-57
2021/04/27 11:25:57;;;;;;;;;;;;;;;-146.28;100.00;62448.88;3623630;39;19943;-54
2021/04/27 11:28:43;;;;;;;;;;;;;;;-146.28;100.00;62448.88;3625055;39;19949;-55
2021/04/27 11:31:16;;;;;;;;;;;;;;;-146.28;100.00;62448.88;3620891;39;20211;-55
2021/04/27 11:33:43;;;;;;;;;;;;;;;-146.28;100.00;62448.88;3622906;39;19947;-55
2021/04/27 11:36:12;;;;;;;;;;;;;;;-146.28;100.00;62448.88;3612124;39;20551;-55
2021/04/27 11:38:48;;;;;;;;;;;;;;;-146.28;100.00;62448.88;3621910;39;19939;-56
2021/04/27 11:41:15;;;;;;;;;;;;;;;-146.28;100.00;62448.88;3610236;39;19946;-55
2021/04/27 11:44:00;;;;;;;;;;;;;;;-146.28;100.00;62448.88;3605775;39;19953;-57
2021/04/27 11:46:27;;;;;;;;;;;;;;;-146.28;100.00;62448.88;3618490;39;19935;-55
2021/04/27 11:48:54;;;;;;;;;;;;;;;-146.28;100.00;62448.88;3615945;39;19939;-56
2021/04/27 11:51:21;;;;;;;;;;;;;;;-146.28;100.00;62448.88;3622700;39;19935;-57
2021/04/27 11:54:00;;;;;;;;;;;;;;;-146.28;100.00;62448.88;3619783;39;19935;-56
2021/04/27 11:56:45;;;;;;;;;;;;;;;-146.28;100.00;62448.88;3620275;39;19941;-56
2021/04/27 11:59:12;;;;;;;;;;;;;;;-146.28;100.00;62448.88;3610442;39;19953;-56
2021/04/27 12:01:39;;;;;;;;;;;;;;;-146.28;100.00;62448.88;3627349;39;19945;-56
2021/04/27 12:04:06;;;;;;;;;;;;;;;-146.28;100.00;62448.88;3620123;39;19941;-56
2021/04/27 12:06:33;;;;;;;;;;;;;;;-146.28;100.00;62448.88;3621279;39;19935;-56
2021/04/27 12:09:01;;;;;;;;;;;;;;;-146.28;100.00;62448.88;3620636;39;19939;-56
2021/04/27 12:11:30;;;;;;;;;;;;;;;-146.28;100.00;62448.88;3618045;39;19950;-55
2021/04/27 12:14:07;;;;;;;;;;;;;;;-146.28;100.00;62448.88;3606451;39;19943;-55
2021/04/27 12:16:35;;;;;;;;;;;;;;;-146.28;100.00;62448.88;3618321;39;19935;-55
2021/04/27 12:19:04;;;;;;;;;;;;;;;-146.28;100.00;62448.88;3616148;39;20632;-55
2021/04/27 12:21:39;;;;;;;;;;;;;;;-146.28;100.00;62448.88;3622875;39;19935;-55
2021/04/27 12:24:08;;;;;;;;;;;;;;;-146.28;100.00;62448.88;3617107;39;20239;-55
2021/04/27 12:26:36;;;;;;;;;;;;;;;-146.28;100.00;62448.88;3621697;39;19949;-55
2021/04/27 12:29:04;;;;;;;;;;;;;;;-146.28;100.00;62448.88;3609817;39;19943;-55
2021/04/27 12:31:33;;;;;;;;;;;;;;;-146.28;100.00;62448.88;3616637;39;19941;-56
2021/04/27 12:34:02;;;;;;;;;;;;;;;-146.28;100.00;62448.88;3620253;39;20376;-57
2021/04/27 12:36:32;;;;;;;;;;;;;;;-146.28;100.00;62448.88;3614881;39;19956;-57
2021/04/27 12:38:59;;;;;;;;;;;;;;;-146.28;100.00;62448.88;3616921;39;19964;-57
2021/04/27 12:41:42;;;;;;;;;;;;;;;-146.28;100.00;62448.88;3620639;39;20327;-57
2021/04/27 12:44:27;;;;;;;;;;;;;;;-146.28;100.00;62448.88;3618249;39;19953;-55
2021/04/27 12:46:55;;;;;;;;;;;;;;;-146.28;100.00;62448.88;3618540;39;20348;-56
2021/04/27 12:49:33;;;;;;;;;;;;;;;-146.28;100.00;62448.88;3620483;39;19949;-56
2021/04/27 12:52:06;;;;;;;;;;;;;;;-146.28;100.00;62448.88;3596569;39;19943;-55
2021/04/27 12:54:35;;;;;;;;;;;;;;;-146.28;100.00;62448.88;3620092;39;19943;-56
2021/04/27 12:57:02;;;;;;;;;;;;;;;-146.28;100.00;62448.88;3617651;39;19972;-58
2021/04/27 12:59:36;;;;;;;;;;;;;;;-146.28;100.00;62448.88;3618737;39;19947;-54